createdAt,value
2019-05-09T00:00:49.878Z,968.594
2019-05-09T00:02:49.942Z,968.585
2019-05-09T00:04:50.425Z,968.590
2019-05-09T00:06:49.593Z,968.586
2019-05-09T00:08:50.504Z,968.557
2019-05-09T00:10:50.536Z,968.557
2019-05-09T00:12:50.343Z,968.605
2019-05-09T00:14:50.358Z,968.617
2019-05-09T00:16:50.403Z,968.611
2019-05-09T00:18:50.493Z,968.613
2019-05-09T00:20:50.550Z,968.620
2019-05-09T00:22:50.542Z,968.614
2019-05-09T00:24:50.510Z,968.617
2019-05-09T00:26:49.665Z,968.632
2019-05-09T00:28:49.748Z,968.606
2019-05-09T00:30:49.686Z,968.574
2019-05-09T00:32:49.754Z,968.576
2019-05-09T00:34:50.074Z,968.614
2019-05-09T00:36:50.204Z,968.609
2019-05-09T00:38:50.246Z,968.545
2019-05-09T00:40:59.289Z,968.518
2019-05-09T00:42:50.320Z,968.515
2019-05-09T00:44:50.329Z,968.516
2019-05-09T00:46:50.560Z,968.493
2019-05-09T00:48:49.649Z,968.469
2019-05-09T00:50:50.568Z,968.445
2019-05-09T00:52:49.632Z,968.494
2019-05-09T00:54:50.585Z,968.554
2019-05-09T00:56:50.342Z,968.575
2019-05-09T00:58:50.397Z,968.567
2019-05-09T01:00:50.452Z,968.558
2019-05-09T01:02:50.515Z,968.551
2019-05-09T01:04:49.850Z,968.563
2019-05-09T01:06:50.025Z,968.553
2019-05-09T01:08:50.082Z,968.547
2019-05-09T01:10:50.173Z,968.544
2019-05-09T01:12:50.354Z,968.544
2019-05-09T01:14:50.485Z,968.531
2019-05-09T01:16:49.632Z,968.511
2019-05-09T01:18:49.754Z,968.484
2019-05-09T01:20:49.983Z,968.452
2019-05-09T01:22:50.147Z,968.454
2019-05-09T01:24:50.188Z,968.467
2019-05-09T01:26:50.460Z,968.478
2019-05-09T01:28:49.613Z,968.497
2019-05-09T01:30:49.758Z,968.511
2019-05-09T01:32:49.920Z,968.539
2019-05-09T01:34:50.381Z,968.549
2019-05-09T01:36:49.617Z,968.530
2019-05-09T01:38:49.630Z,968.513
2019-05-09T01:40:49.616Z,968.441
2019-05-09T01:42:49.709Z,968.442
2019-05-09T01:44:49.746Z,968.481
2019-05-09T01:46:49.926Z,968.493
2019-05-09T01:48:50.001Z,968.472
2019-05-09T01:50:50.093Z,968.482
2019-05-09T01:52:50.111Z,968.488
2019-05-09T01:54:50.147Z,968.491
2019-05-09T01:56:50.305Z,968.489
2019-05-09T01:58:50.310Z,968.537
2019-05-09T02:00:50.340Z,968.537
2019-05-09T02:02:50.384Z,968.559
2019-05-09T02:04:49.699Z,968.592
2019-05-09T02:06:49.897Z,968.616
2019-05-09T02:08:50.140Z,968.608
2019-05-09T02:10:50.143Z,968.608
2019-05-09T02:12:50.115Z,968.559
2019-05-09T02:14:50.182Z,968.558
2019-05-09T02:16:50.332Z,968.564
2019-05-09T02:18:50.403Z,968.597
2019-05-09T02:20:50.458Z,968.606
2019-05-09T02:22:50.438Z,968.606
2019-05-09T02:24:50.408Z,968.616
2019-05-09T02:26:49.699Z,968.624
2019-05-09T02:28:49.708Z,968.619
2019-05-09T02:30:49.899Z,968.552
2019-05-09T02:32:50.030Z,968.516
2019-05-09T02:34:50.429Z,968.500
2019-05-09T02:36:50.557Z,968.499
2019-05-09T02:38:49.684Z,968.467
2019-05-09T02:40:49.886Z,968.459
2019-05-09T02:42:49.964Z,968.441
2019-05-09T02:44:50.067Z,968.450
2019-05-09T02:46:50.190Z,968.456
2019-05-09T02:48:50.185Z,968.486
2019-05-09T02:50:50.301Z,968.516
2019-05-09T02:52:50.313Z,968.530
2019-05-09T02:54:50.550Z,968.571
2019-05-09T02:56:49.768Z,968.551
2019-05-09T02:58:49.718Z,968.510
2019-05-09T03:00:49.723Z,968.493
2019-05-09T03:02:49.854Z,968.489
2019-05-09T03:04:50.224Z,968.501
2019-05-09T03:06:50.350Z,968.510
2019-05-09T03:08:50.360Z,968.516
2019-05-09T03:10:50.367Z,968.506
2019-05-09T03:12:50.896Z,968.484
2019-05-09T03:14:49.975Z,968.482
2019-05-09T03:16:50.113Z,968.475
2019-05-09T03:18:50.057Z,968.465
2019-05-09T03:20:50.111Z,968.452
2019-05-09T03:22:49.875Z,968.429
2019-05-09T03:24:49.925Z,968.424
2019-05-09T03:26:50.193Z,968.406
2019-05-09T03:28:50.224Z,968.392
2019-05-09T03:30:50.622Z,968.399
2019-05-09T03:32:49.752Z,968.392
2019-05-09T03:34:50.125Z,968.403
2019-05-09T03:36:50.273Z,968.415
2019-05-09T03:38:50.339Z,968.412
2019-05-09T03:40:50.341Z,968.407
2019-05-09T03:42:50.304Z,968.408
2019-05-09T03:44:50.295Z,968.401
2019-05-09T03:46:50.527Z,968.387
2019-05-09T03:48:49.852Z,968.367
2019-05-09T03:50:49.931Z,968.354
2019-05-09T03:52:49.927Z,968.298
2019-05-09T03:54:50.045Z,968.283
2019-05-09T03:56:50.294Z,968.235
2019-05-09T03:58:50.287Z,968.238
2019-05-09T04:00:50.401Z,968.252
2019-05-09T04:02:50.470Z,968.274
2019-05-09T04:04:49.800Z,968.291
2019-05-09T04:06:49.957Z,968.336
2019-05-09T04:08:50.118Z,968.398
2019-05-09T04:10:50.716Z,968.442
2019-05-09T04:12:59.692Z,968.456
2019-05-09T04:14:49.808Z,968.456
2019-05-09T04:16:49.929Z,968.472
2019-05-09T04:18:49.947Z,968.490
2019-05-09T04:20:49.957Z,968.540
2019-05-09T04:22:50.012Z,968.582
2019-05-09T04:24:49.976Z,968.612
2019-05-09T04:26:50.542Z,968.634
2019-05-09T04:28:50.509Z,968.664
2019-05-09T04:30:50.481Z,968.714
2019-05-09T04:32:50.523Z,968.720
2019-05-09T04:34:49.881Z,968.762
2019-05-09T04:36:50.041Z,968.776
2019-05-09T04:38:50.051Z,968.782
2019-05-09T04:40:49.995Z,968.785
2019-05-09T04:42:50.030Z,968.805
2019-05-09T04:45:03.300Z,968.805
2019-05-09T04:47:03.305Z,968.796
2019-05-09T04:49:02.507Z,968.778
2019-05-09T04:50:49.956Z,968.780
2019-05-09T04:52:49.997Z,968.771
2019-05-09T04:54:49.986Z,968.777
2019-05-09T04:56:54.018Z,968.763
2019-05-09T04:58:50.077Z,968.780
2019-05-09T05:00:50.103Z,968.764
2019-05-09T05:02:50.149Z,968.744
2019-05-09T05:04:50.400Z,968.739
2019-05-09T05:06:49.627Z,968.731
2019-05-09T05:08:49.717Z,968.752
2019-05-09T05:10:49.796Z,968.751
2019-05-09T05:12:49.759Z,968.766
2019-05-09T05:14:49.778Z,968.747
2019-05-09T05:17:04.932Z,968.764
2019-05-09T05:18:50.212Z,968.774
2019-05-09T05:20:50.242Z,968.776
2019-05-09T05:22:50.250Z,968.792
2019-05-09T05:24:50.282Z,968.799
2019-05-09T05:26:50.423Z,968.808
2019-05-09T05:28:50.500Z,968.822
2019-05-09T05:30:50.554Z,968.831
2019-05-09T05:32:49.626Z,968.819
2019-05-09T05:34:49.950Z,968.823
2019-05-09T05:36:49.783Z,968.825
2019-05-09T05:38:49.855Z,968.806
2019-05-09T05:40:50.178Z,968.827
2019-05-09T05:42:50.267Z,968.827
2019-05-09T05:44:50.300Z,968.847
2019-05-09T05:46:51.176Z,968.843
2019-05-09T05:48:50.236Z,968.847
2019-05-09T05:50:50.237Z,968.848
2019-05-09T05:52:50.311Z,968.838
2019-05-09T05:54:50.324Z,968.827
2019-05-09T05:56:50.522Z,968.809
2019-05-09T05:58:49.683Z,968.802
2019-05-09T06:00:49.696Z,968.808
2019-05-09T06:02:49.677Z,968.797
2019-05-09T06:04:50.262Z,968.814
2019-05-09T06:06:50.440Z,968.785
2019-05-09T06:08:50.514Z,968.757
2019-05-09T06:10:50.453Z,968.764
2019-05-09T06:12:50.525Z,968.776
2019-05-09T06:14:50.534Z,968.775
2019-05-09T06:16:49.758Z,968.774
2019-05-09T06:18:49.796Z,968.768
2019-05-09T06:20:49.723Z,968.750
2019-05-09T06:22:49.801Z,968.764
2019-05-09T06:24:49.814Z,968.777
2019-05-09T06:26:50.053Z,968.804
2019-05-09T06:28:49.994Z,968.806
2019-05-09T06:30:49.931Z,968.779
2019-05-09T06:32:49.993Z,968.779
2019-05-09T06:34:50.236Z,968.768
2019-05-09T06:36:50.526Z,968.778
2019-05-09T06:38:50.578Z,968.778
2019-05-09T06:40:49.666Z,968.785
2019-05-09T06:42:49.783Z,968.788
2019-05-09T06:44:49.857Z,968.775
2019-05-09T06:46:49.967Z,968.785
2019-05-09T06:48:49.982Z,968.760
2019-05-09T06:50:50.088Z,968.760
2019-05-09T06:52:50.094Z,968.760
2019-05-09T06:54:50.122Z,968.738
2019-05-09T06:56:50.226Z,968.751
2019-05-09T06:58:50.270Z,968.760
2019-05-09T07:00:50.245Z,968.769
2019-05-09T07:02:50.247Z,968.776
2019-05-09T07:04:50.551Z,968.804
2019-05-09T07:06:49.658Z,968.804
2019-05-09T07:08:49.646Z,968.834
2019-05-09T07:10:49.614Z,968.841
2019-05-09T07:12:49.689Z,968.861
2019-05-09T07:14:49.632Z,968.852
2019-05-09T07:16:49.808Z,968.833
2019-05-09T07:18:49.836Z,968.820
2019-05-09T07:20:49.921Z,968.786
2019-05-09T07:22:50.024Z,968.770
2019-05-09T07:24:50.106Z,968.762
2019-05-09T07:26:50.431Z,968.741
2019-05-09T07:28:50.597Z,968.714
2019-05-09T07:30:49.660Z,968.720
2019-05-09T07:32:49.733Z,968.727
2019-05-09T07:34:50.144Z,968.724
2019-05-09T07:36:50.188Z,968.751
2019-05-09T07:38:50.343Z,968.793
2019-05-09T07:40:50.339Z,968.830
2019-05-09T07:42:50.416Z,968.800
2019-05-09T07:44:52.750Z,968.791
2019-05-09T07:46:49.998Z,968.758
2019-05-09T07:48:50.014Z,968.757
2019-05-09T07:50:49.944Z,968.766
2019-05-09T07:52:49.918Z,968.775
2019-05-09T07:54:49.970Z,968.743
2019-05-09T07:56:50.188Z,968.682
2019-05-09T07:58:50.219Z,968.636
2019-05-09T08:00:50.151Z,968.596
2019-05-09T08:02:50.182Z,968.594
2019-05-09T08:04:49.615Z,968.612
2019-05-09T08:06:49.880Z,968.599
2019-05-09T08:08:49.958Z,968.593
2019-05-09T08:10:49.934Z,968.576
2019-05-09T08:12:49.980Z,968.565
2019-05-09T08:15:16.325Z,968.591
2019-05-09T08:16:50.150Z,968.590
2019-05-09T08:18:50.269Z,968.620
2019-05-09T08:20:50.257Z,968.620
2019-05-09T08:23:02.398Z,968.606
2019-05-09T08:24:50.248Z,968.603
2019-05-09T08:26:50.472Z,968.580
2019-05-09T08:28:50.584Z,968.570
2019-05-09T08:30:50.610Z,968.569
2019-05-09T08:32:49.679Z,968.563
2019-05-09T08:34:50.186Z,968.566
2019-05-09T08:36:50.282Z,968.567
2019-05-09T08:38:50.318Z,968.570
2019-05-09T08:40:50.287Z,968.571
2019-05-09T08:42:50.359Z,968.567
2019-05-09T08:44:50.286Z,968.576
2019-05-09T08:46:50.426Z,968.569
2019-05-09T08:48:50.411Z,968.553
2019-05-09T08:50:50.402Z,968.498
2019-05-09T08:52:50.400Z,968.479
2019-05-09T08:54:50.520Z,968.495
2019-05-09T08:56:50.614Z,968.525
2019-05-09T08:58:49.651Z,968.537
2019-05-09T09:00:49.723Z,968.551
2019-05-09T09:02:49.702Z,968.543
2019-05-09T09:04:50.054Z,968.554
2019-05-09T09:06:50.243Z,968.534
2019-05-09T09:08:50.304Z,968.526
2019-05-09T09:10:50.320Z,968.525
2019-05-09T09:12:50.334Z,968.533
2019-05-09T09:14:50.460Z,968.517
2019-05-09T09:16:49.653Z,968.501
2019-05-09T09:18:49.911Z,968.504
2019-05-09T09:20:50.014Z,968.485
2019-05-09T09:22:50.045Z,968.464
2019-05-09T09:24:50.066Z,968.463
2019-05-09T09:26:50.132Z,968.441
2019-05-09T09:28:50.108Z,968.440
2019-05-09T09:30:50.182Z,968.428
2019-05-09T09:32:50.186Z,968.401
2019-05-09T09:34:50.560Z,968.375
2019-05-09T09:36:49.757Z,968.325
2019-05-09T09:38:49.730Z,968.312
2019-05-09T09:40:49.737Z,968.320
2019-05-09T09:42:49.677Z,968.313
2019-05-09T09:44:49.802Z,968.268
2019-05-09T09:46:49.957Z,968.305
2019-05-09T09:48:49.943Z,968.325
2019-05-09T09:50:52.067Z,968.321
2019-05-09T09:52:50.133Z,968.344
2019-05-09T09:54:50.152Z,968.335
2019-05-09T09:56:50.274Z,968.327
2019-05-09T09:58:50.292Z,968.336
2019-05-09T10:00:50.310Z,968.357
2019-05-09T10:02:50.184Z,968.381
2019-05-09T10:04:50.543Z,968.373
2019-05-09T10:06:53.491Z,968.376
2019-05-09T10:08:50.575Z,968.328
2019-05-09T10:10:50.529Z,968.320
2019-05-09T10:12:49.699Z,968.288
2019-05-09T10:14:49.763Z,968.303
2019-05-09T10:16:49.885Z,968.292
2019-05-09T10:18:49.950Z,968.280
2019-05-09T10:20:49.964Z,968.280
2019-05-09T10:23:17.814Z,968.236
2019-05-09T10:24:50.520Z,968.238
2019-05-09T10:26:49.634Z,968.214
2019-05-09T10:28:49.664Z,968.183
2019-05-09T10:30:49.668Z,968.150
2019-05-09T10:32:49.699Z,968.096
2019-05-09T10:34:50.020Z,968.104
2019-05-09T10:36:50.028Z,968.109
2019-05-09T10:38:50.035Z,968.085
2019-05-09T10:40:53.745Z,968.055
2019-05-09T10:42:49.721Z,968.064
2019-05-09T10:44:49.800Z,968.071
2019-05-09T10:47:02.382Z,968.070
2019-05-09T10:48:49.658Z,968.090
2019-05-09T10:51:03.315Z,968.121
2019-05-09T10:52:50.044Z,968.169
2019-05-09T10:54:50.058Z,968.240
2019-05-09T10:56:50.232Z,968.269
2019-05-09T10:58:50.273Z,968.277
2019-05-09T11:00:50.233Z,968.272
2019-05-09T11:02:50.331Z,968.244
2019-05-09T11:04:49.664Z,968.225
2019-05-09T11:06:49.938Z,968.195
2019-05-09T11:08:49.969Z,968.198
2019-05-09T11:10:50.111Z,968.168
2019-05-09T11:12:50.182Z,968.144
2019-05-09T11:14:50.172Z,968.154
2019-05-09T11:17:17.862Z,968.140
2019-05-09T11:18:49.714Z,968.146
2019-05-09T11:20:49.725Z,968.141
2019-05-09T11:22:49.724Z,968.136
2019-05-09T11:24:51.862Z,968.178
2019-05-09T11:26:50.074Z,968.174
2019-05-09T11:28:50.139Z,968.151
2019-05-09T11:30:50.212Z,968.138
2019-05-09T11:32:50.211Z,968.125
2019-05-09T11:34:50.457Z,968.131
2019-05-09T11:36:50.256Z,968.110
2019-05-09T11:38:50.317Z,968.100
2019-05-09T11:40:50.381Z,968.058
2019-05-09T11:42:50.494Z,968.049
2019-05-09T11:44:50.185Z,968.065
2019-05-09T11:46:50.354Z,968.067
2019-05-09T11:48:50.293Z,968.075
2019-05-09T11:50:50.346Z,968.075
2019-05-09T11:52:50.341Z,968.105
2019-05-09T11:54:50.413Z,968.088
2019-05-09T11:56:50.470Z,968.119
2019-05-09T11:58:50.371Z,968.113
2019-05-09T12:00:50.406Z,968.094
2019-05-09T12:02:50.398Z,968.108
2019-05-09T12:04:49.888Z,968.127
2019-05-09T12:06:49.965Z,968.126
2019-05-09T12:08:49.927Z,968.121
2019-05-09T12:10:49.949Z,968.116
2019-05-09T12:12:49.892Z,968.094
2019-05-09T12:14:49.910Z,968.075
2019-05-09T12:16:50.018Z,968.074
2019-05-09T12:18:50.166Z,968.107
2019-05-09T12:20:50.168Z,968.114
2019-05-09T12:22:50.200Z,968.118
2019-05-09T12:24:54.364Z,968.114
2019-05-09T12:26:49.770Z,968.123
2019-05-09T12:28:49.817Z,968.105
2019-05-09T12:30:49.787Z,968.103
2019-05-09T12:32:49.812Z,968.122
2019-05-09T12:34:50.102Z,968.160
2019-05-09T12:36:50.516Z,968.188
2019-05-09T12:38:50.633Z,968.212
2019-05-09T12:40:49.674Z,968.258
2019-05-09T12:42:50.659Z,968.278
2019-05-09T12:44:49.972Z,968.302
2019-05-09T12:46:50.067Z,968.294
2019-05-09T12:48:50.058Z,968.300
2019-05-09T12:50:50.080Z,968.267
2019-05-09T12:52:50.083Z,968.267
2019-05-09T12:54:50.090Z,968.267
2019-05-09T12:56:50.168Z,968.275
2019-05-09T12:58:50.202Z,968.241
2019-05-09T13:00:52.236Z,968.229
2019-05-09T13:02:50.276Z,968.215
2019-05-09T13:04:49.692Z,968.213
2019-05-09T13:06:49.779Z,968.205
2019-05-09T13:08:49.781Z,968.171
2019-05-09T13:10:49.746Z,968.154
2019-05-09T13:12:49.789Z,968.119
2019-05-09T13:14:49.824Z,968.100
2019-05-09T13:16:54.087Z,968.046
2019-05-09T13:18:50.193Z,968.025
2019-05-09T13:20:50.091Z,968.044
2019-05-09T13:22:50.239Z,968.008
2019-05-09T13:24:50.259Z,967.990
2019-05-09T13:26:50.597Z,967.965
2019-05-09T13:28:50.599Z,967.927
2019-05-09T13:30:49.693Z,967.929
2019-05-09T13:32:49.703Z,967.894
2019-05-09T13:34:50.017Z,967.884
2019-05-09T13:36:50.241Z,967.872
2019-05-09T13:39:05.304Z,967.827
2019-05-09T13:40:54.222Z,967.815
2019-05-09T13:42:50.319Z,967.796
2019-05-09T13:44:50.386Z,967.769
2019-05-09T13:46:50.626Z,967.748
2019-05-09T13:49:14.261Z,967.725
2019-05-09T13:50:50.543Z,967.688
2019-05-09T13:52:50.584Z,967.636
2019-05-09T13:54:50.591Z,967.594
2019-05-09T13:57:01.532Z,967.511
2019-05-09T13:58:49.725Z,967.451
2019-05-09T14:01:02.881Z,967.424
2019-05-09T14:02:49.663Z,967.317
2019-05-09T14:04:50.219Z,967.286
2019-05-09T14:06:50.395Z,967.247
2019-05-09T14:08:50.422Z,967.210
2019-05-09T14:10:50.471Z,967.167
2019-05-09T14:13:12.853Z,967.133
2019-05-09T14:14:49.951Z,967.127
2019-05-09T14:16:50.032Z,967.113
2019-05-09T14:18:50.234Z,967.170
2019-05-09T14:20:50.373Z,967.256
2019-05-09T14:22:50.584Z,967.410
2019-05-09T14:24:50.627Z,967.410
2019-05-09T14:26:49.747Z,967.980
2019-05-09T14:28:49.742Z,968.033
2019-05-09T14:30:49.821Z,968.131
2019-05-09T14:32:50.367Z,968.234
2019-05-09T14:34:49.705Z,968.268
2019-05-09T14:36:50.025Z,968.346
2019-05-09T14:38:50.063Z,968.368
2019-05-09T14:40:50.076Z,968.416
2019-05-09T14:42:50.069Z,968.435
2019-05-09T14:44:50.058Z,968.442
2019-05-09T14:46:50.126Z,968.459
2019-05-09T14:48:50.191Z,968.492
2019-05-09T14:50:50.202Z,968.484
2019-05-09T14:52:50.843Z,968.482
2019-05-09T14:54:49.887Z,968.485
2019-05-09T14:56:50.055Z,968.463
2019-05-09T14:58:50.060Z,968.435
2019-05-09T15:00:50.224Z,968.424
2019-05-09T15:02:50.370Z,968.388
2019-05-09T15:04:50.586Z,968.387
2019-05-09T15:06:49.787Z,968.363
2019-05-09T15:08:49.780Z,968.333
2019-05-09T15:10:49.807Z,968.325
2019-05-09T15:12:49.939Z,968.308
2019-05-09T15:14:49.905Z,968.296
2019-05-09T15:16:50.040Z,968.274
2019-05-09T15:18:50.051Z,968.239
2019-05-09T15:20:50.132Z,968.239
2019-05-09T15:22:50.210Z,968.215
2019-05-09T15:24:50.207Z,968.189
2019-05-09T15:26:50.322Z,968.177
2019-05-09T15:28:50.297Z,968.112
2019-05-09T15:30:50.288Z,968.107
2019-05-09T15:32:52.392Z,968.100
2019-05-09T15:34:49.710Z,968.081
2019-05-09T15:36:49.897Z,968.056
2019-05-09T15:38:49.955Z,968.035
2019-05-09T15:40:49.899Z,967.986
2019-05-09T15:42:49.905Z,967.969
2019-05-09T15:44:49.946Z,967.954
2019-05-09T15:46:50.028Z,967.956
2019-05-09T15:48:50.005Z,967.956
2019-05-09T15:50:50.141Z,967.955
2019-05-09T15:52:50.183Z,967.941
2019-05-09T15:54:50.349Z,967.935
2019-05-09T15:56:50.560Z,967.935
2019-05-09T15:58:49.755Z,967.920
2019-05-09T16:00:49.755Z,967.872
2019-05-09T16:02:49.885Z,967.851
2019-05-09T16:04:50.293Z,967.815
2019-05-09T16:06:52.896Z,967.793
2019-05-09T16:08:49.949Z,967.747
2019-05-09T16:10:50.024Z,967.698
2019-05-09T16:12:50.064Z,967.698
2019-05-09T16:14:50.085Z,967.705
2019-05-09T16:16:50.201Z,967.697
2019-05-09T16:18:50.305Z,967.709
2019-05-09T16:20:50.380Z,967.712
2019-05-09T16:22:50.383Z,967.708
2019-05-09T16:24:50.397Z,967.712
2019-05-09T16:26:49.771Z,967.718
2019-05-09T16:28:49.919Z,967.730
2019-05-09T16:30:49.952Z,967.731
2019-05-09T16:32:49.973Z,967.760
2019-05-09T16:34:50.325Z,967.770
2019-05-09T16:36:50.342Z,967.780
2019-05-09T16:38:50.457Z,967.783
2019-05-09T16:40:50.497Z,967.782
2019-05-09T16:42:50.503Z,967.767
2019-05-09T16:44:50.460Z,967.750
2019-05-09T16:46:49.643Z,967.745
2019-05-09T16:48:49.688Z,967.745
2019-05-09T16:51:04.430Z,967.786
2019-05-09T16:52:49.814Z,967.783
2019-05-09T16:54:50.446Z,967.777
2019-05-09T16:56:50.485Z,967.770
2019-05-09T16:58:50.540Z,967.798
2019-05-09T17:00:50.569Z,967.803
2019-05-09T17:02:50.544Z,967.843
2019-05-09T17:04:50.004Z,967.872
2019-05-09T17:06:50.239Z,967.891
2019-05-09T17:08:50.208Z,967.891
2019-05-09T17:10:50.210Z,967.966
2019-05-09T17:12:50.255Z,967.975
2019-05-09T17:14:50.299Z,967.975
2019-05-09T17:16:53.325Z,967.998
2019-05-09T17:18:50.354Z,968.007
2019-05-09T17:20:50.338Z,967.996
2019-05-09T17:22:50.319Z,968.014
2019-05-09T17:24:50.435Z,968.011
2019-05-09T17:26:50.475Z,968.013
2019-05-09T17:28:50.464Z,968.010
2019-05-09T17:30:50.517Z,968.026
2019-05-09T17:32:50.390Z,968.058
2019-05-09T17:34:49.825Z,968.079
2019-05-09T17:36:49.951Z,968.134
2019-05-09T17:38:49.991Z,968.139
2019-05-09T17:40:50.013Z,968.149
2019-05-09T17:42:49.969Z,968.165
2019-05-09T17:44:49.924Z,968.184
2019-05-09T17:46:50.040Z,968.196
2019-05-09T17:48:50.059Z,968.227
2019-05-09T17:50:50.057Z,968.237
2019-05-09T17:52:50.126Z,968.261
2019-05-09T17:54:50.110Z,968.282
2019-05-09T17:56:50.398Z,968.315
2019-05-09T17:58:50.436Z,968.315
2019-05-09T18:00:50.411Z,968.374
2019-05-09T18:02:50.397Z,968.370
2019-05-09T18:04:49.759Z,968.387
2019-05-09T18:06:49.953Z,968.383
2019-05-09T18:08:49.918Z,968.422
2019-05-09T18:10:49.934Z,968.430
2019-05-09T18:12:49.945Z,968.462
2019-05-09T18:14:49.946Z,968.471
2019-05-09T18:16:50.047Z,968.519
2019-05-09T18:18:50.031Z,968.536
2019-05-09T18:20:50.038Z,968.546
2019-05-09T18:22:50.110Z,968.595
2019-05-09T18:24:50.069Z,968.612
2019-05-09T18:26:50.223Z,968.634
2019-05-09T18:28:50.267Z,968.653
2019-05-09T18:30:50.285Z,968.730
2019-05-09T18:32:50.357Z,968.739
2019-05-09T18:34:52.763Z,968.760
2019-05-09T18:36:49.969Z,968.760
2019-05-09T18:38:50.052Z,968.767
2019-05-09T18:40:50.039Z,968.760
2019-05-09T18:42:50.013Z,968.794
2019-05-09T18:44:49.996Z,968.797
2019-05-09T18:46:50.084Z,968.818
2019-05-09T18:48:50.103Z,968.860
2019-05-09T18:50:50.088Z,968.910
2019-05-09T18:52:50.069Z,968.932
2019-05-09T18:54:50.022Z,968.947
2019-05-09T18:56:50.292Z,968.966
2019-05-09T18:58:50.489Z,968.996
2019-05-09T19:00:50.498Z,968.996
2019-05-09T19:02:50.615Z,969.089
2019-05-09T19:04:50.248Z,969.113
2019-05-09T19:06:50.394Z,969.156
2019-05-09T19:08:50.382Z,969.167
2019-05-09T19:10:52.723Z,969.221
2019-05-09T19:12:49.902Z,969.264
2019-05-09T19:14:49.949Z,969.287
2019-05-09T19:16:50.208Z,969.342
2019-05-09T19:18:50.214Z,969.409
2019-05-09T19:20:50.269Z,969.468
2019-05-09T19:22:50.270Z,969.494
2019-05-09T19:24:50.328Z,969.552
2019-05-09T19:26:50.425Z,969.578
2019-05-09T19:28:50.504Z,969.607
2019-05-09T19:30:50.506Z,969.626
2019-05-09T19:32:50.509Z,969.657
2019-05-09T19:34:49.853Z,969.697
2019-05-09T19:36:50.019Z,969.725
2019-05-09T19:38:50.050Z,969.745
2019-05-09T19:40:50.030Z,969.757
2019-05-09T19:42:50.089Z,969.783
2019-05-09T19:44:50.174Z,969.806
2019-05-09T19:46:50.369Z,969.802
2019-05-09T19:48:50.454Z,969.898
2019-05-09T19:50:50.547Z,969.922
2019-05-09T19:52:50.590Z,969.922
2019-05-09T19:54:49.629Z,969.967
2019-05-09T19:56:49.727Z,969.980
2019-05-09T19:58:49.805Z,970.040
2019-05-09T20:00:49.810Z,970.040
2019-05-09T20:02:49.985Z,970.091
2019-05-09T20:04:50.202Z,970.119
2019-05-09T20:06:50.361Z,970.119
2019-05-09T20:08:50.404Z,970.221
2019-05-09T20:10:50.407Z,970.207
2019-05-09T20:12:50.467Z,970.244
2019-05-09T20:14:50.503Z,970.254
2019-05-09T20:16:49.722Z,970.252
2019-05-09T20:18:49.810Z,970.266
2019-05-09T20:20:49.846Z,970.329
2019-05-09T20:22:53.670Z,970.329
2019-05-09T20:24:49.727Z,970.376
2019-05-09T20:26:49.909Z,970.390
2019-05-09T20:28:49.984Z,970.401
2019-05-09T20:30:50.138Z,970.452
2019-05-09T20:32:50.199Z,970.452
2019-05-09T20:34:49.714Z,970.533
2019-05-09T20:36:49.994Z,970.531
2019-05-09T20:38:50.088Z,970.573
2019-05-09T20:40:50.156Z,970.597
2019-05-09T20:42:50.290Z,970.580
2019-05-09T20:44:50.303Z,970.588
2019-05-09T20:46:50.371Z,970.610
2019-05-09T20:48:50.489Z,970.610
2019-05-09T20:50:50.510Z,970.642
2019-05-09T20:52:49.705Z,970.666
2019-05-09T20:54:49.753Z,970.656
2019-05-09T20:56:50.090Z,970.656
2019-05-09T20:58:50.094Z,970.711
2019-05-09T21:00:50.120Z,970.773
2019-05-09T21:02:50.163Z,970.819
2019-05-09T21:04:49.612Z,970.898
2019-05-09T21:06:49.909Z,970.931
2019-05-09T21:08:49.848Z,971.024
2019-05-09T21:10:49.884Z,971.043
2019-05-09T21:12:49.842Z,971.088
2019-05-09T21:14:49.813Z,971.119
2019-05-09T21:16:49.912Z,971.136
2019-05-09T21:18:50.018Z,971.186
2019-05-09T21:20:50.042Z,971.200
2019-05-09T21:22:50.055Z,971.239
2019-05-09T21:24:50.035Z,971.259
2019-05-09T21:26:50.200Z,971.292
2019-05-09T21:28:50.312Z,971.314
2019-05-09T21:30:50.477Z,971.355
2019-05-09T21:32:50.514Z,971.375
2019-05-09T21:34:49.770Z,971.411
2019-05-09T21:36:49.970Z,971.418
2019-05-09T21:38:49.979Z,971.418
2019-05-09T21:40:50.054Z,971.498
2019-05-09T21:42:50.158Z,971.524
2019-05-09T21:44:50.314Z,971.584
2019-05-09T21:46:50.504Z,971.599
2019-05-09T21:48:50.543Z,971.677
2019-05-09T21:50:50.636Z,971.712
2019-05-09T21:52:49.704Z,971.716
2019-05-09T21:54:49.823Z,971.726
2019-05-09T21:56:50.100Z,971.737
2019-05-09T21:58:50.076Z,971.763
2019-05-09T22:00:50.137Z,971.767
2019-05-09T22:02:50.183Z,971.803
2019-05-09T22:04:50.588Z,971.851
2019-05-09T22:06:49.794Z,971.892
2019-05-09T22:08:49.767Z,971.895
2019-05-09T22:10:49.770Z,971.901
2019-05-09T22:12:49.708Z,971.929
2019-05-09T22:14:49.767Z,971.929
2019-05-09T22:16:49.970Z,971.956
2019-05-09T22:18:50.087Z,971.990
2019-05-09T22:20:50.101Z,972.000
2019-05-09T22:22:50.217Z,972.028
2019-05-09T22:24:50.284Z,972.049
2019-05-09T22:26:50.489Z,972.091
2019-05-09T22:28:50.486Z,972.098
2019-05-09T22:30:50.451Z,972.115
2019-05-09T22:32:50.567Z,972.124
2019-05-09T22:34:50.055Z,972.189
2019-05-09T22:36:50.108Z,972.199
2019-05-09T22:38:50.194Z,972.210
2019-05-09T22:40:50.219Z,972.232
2019-05-09T22:42:50.228Z,972.248
2019-05-09T22:44:50.271Z,972.262
2019-05-09T22:46:50.372Z,972.280
2019-05-09T22:48:50.458Z,972.254
2019-05-09T22:50:50.410Z,972.244
2019-05-09T22:52:50.476Z,972.244
2019-05-09T22:54:50.554Z,972.254
2019-05-09T22:56:50.049Z,972.290
2019-05-09T22:58:50.259Z,972.316
2019-05-09T23:00:50.331Z,972.344
2019-05-09T23:02:50.380Z,972.377
2019-05-09T23:04:49.785Z,972.411
2019-05-09T23:06:49.905Z,972.431
2019-05-09T23:08:49.903Z,972.438
2019-05-09T23:10:53.819Z,972.462
2019-05-09T23:12:49.872Z,972.458
2019-05-09T23:14:50.062Z,972.480
2019-05-09T23:16:51.140Z,972.477
2019-05-09T23:18:50.107Z,972.503
2019-05-09T23:20:50.093Z,972.508
2019-05-09T23:22:50.524Z,972.479
2019-05-09T23:24:49.627Z,972.473
2019-05-09T23:26:49.770Z,972.475
2019-05-09T23:28:49.830Z,972.471
2019-05-09T23:30:49.789Z,972.459
2019-05-09T23:32:49.869Z,972.465
2019-05-09T23:34:50.203Z,972.467
2019-05-09T23:36:50.309Z,972.473
2019-05-09T23:38:50.444Z,972.499
2019-05-09T23:40:50.426Z,972.509
2019-05-09T23:42:50.445Z,972.520
2019-05-09T23:44:50.521Z,972.513
2019-05-09T23:46:49.737Z,972.495
2019-05-09T23:48:49.767Z,972.510
2019-05-09T23:50:49.677Z,972.559
2019-05-09T23:52:49.690Z,972.580
2019-05-09T23:54:49.689Z,972.584
2019-05-09T23:56:49.897Z,972.594
2019-05-09T23:58:49.888Z,972.590
